Fillmore, Indiana
Current Conditions -  °F | °C
As of 1:15 PM on Wednesday 28 Jan 2015 (Local Time) from K4I7 Reporting Station
Clear Clear  
Wind Chill: -5°   Ceiling: Unl
Heat Index:   Visibility: 10mi
Dew Point: -10°   Wind: 12mph
Humidity: 47%   Direction: 170°S
Pressure: 30.26"   Gusts: NA
Location:  39.67°N, 86.75°W
Report Text: K4I7 281815Z AUTO 17010KT 10SM CLR 00/M10 A3026 RMK AO2
Loading
Personal Weather Stations






























Interactive Weather Map New forecast layout! Learn more

10-Day Weather Forecast

Advertisements
Track Severe Weather on mobile